KAYS/AYS METAR and TAF weather

Enter ICAO airport designator
Station Type Date Time Source
KAYS METAR 2019/12/13 14:15 UTC NOAA

KAYS 131415Z AUTO 01006KT 5SM RA OVC003 10/08 A3005 RMK AO2 T01000075 TSNO


Station Type Date Time Source
KAYS Decoded METAR 2019/12/13 14:15 UTC NOAA

Waycross / Ware County, Ga, GA, United States (KAYS) 31-15N 082-24W 46M
Dec 13, 2019 - 09:15 AM EST / 2019.12.13 1415 UTC
Wind: from the N (010 degrees) at 7 MPH (6 KT):0
Visibility: 5 mile(s):0
Sky conditions: overcast
Weather: rain
Temperature: 50.0 F (10.0 C)
Dew Point: 45.5 F (7.5 C)
Relative Humidity: 84%
Pressure (altimeter): 30.05 in. Hg (1017 hPa)
ob: KAYS 131415Z AUTO 01006KT 5SM RA OVC003 10/08 A3005 RMK AO2 T01000075 TSNO
cycle: 14

Station Type Date Time Source
KAYS TAF UTC NOAA

Error!

Example: see airport list